createdAt,value
2023-01-30T00:02:13.492Z,101090.53
2023-01-30T00:04:41.547Z,101090.16
2023-01-30T00:07:10.972Z,101086.72
2023-01-30T00:09:38.919Z,101086.88
2023-01-30T00:12:07.797Z,101089.09
2023-01-30T00:14:35.789Z,101095.09
2023-01-30T00:17:03.749Z,101091.31
2023-01-30T00:19:31.994Z,101091.75
2023-01-30T00:22:00.150Z,101089.19
2023-01-30T00:24:29.931Z,101094.47
2023-01-30T00:26:58.257Z,101087.59
2023-01-30T00:29:26.431Z,101095.16
2023-01-30T00:31:54.467Z,101091.22
2023-01-30T00:34:22.477Z,101083.13
2023-01-30T00:37:02.498Z,101078.78
2023-01-30T00:39:36.753Z,101083.47
2023-01-30T00:42:22.542Z,101076.00
2023-01-30T00:45:07.641Z,101080.94
2023-01-30T00:47:35.672Z,101078.25
2023-01-30T00:50:03.863Z,101075.88
2023-01-30T00:52:31.982Z,101076.47
2023-01-30T00:55:01.430Z,101089.09
2023-01-30T00:57:29.407Z,101084.31
2023-01-30T00:59:57.503Z,101076.31
2023-01-30T01:02:25.496Z,101082.88
2023-01-30T01:04:53.606Z,101083.03
2023-01-30T01:07:22.141Z,101081.00
2023-01-30T01:09:50.161Z,101080.56
2023-01-30T01:12:19.559Z,101081.22
2023-01-30T01:14:47.526Z,101084.53
2023-01-30T01:17:15.860Z,101081.72
2023-01-30T01:19:43.867Z,101084.09
2023-01-30T01:22:12.104Z,101084.69
2023-01-30T01:24:40.076Z,101096.06
2023-01-30T01:27:08.077Z,101092.38
2023-01-30T01:29:37.593Z,101104.75
2023-01-30T01:32:06.075Z,101101.09
2023-01-30T01:34:34.108Z,101101.34
2023-01-30T01:37:02.273Z,101103.91
2023-01-30T01:39:50.470Z,101109.28
2023-01-30T01:42:17.954Z,101110.66
2023-01-30T01:45:17.985Z,101125.53
2023-01-30T01:47:55.741Z,101126.81
2023-01-30T01:50:28.201Z,101130.84
2023-01-30T01:52:58.366Z,101133.00
2023-01-30T01:55:27.066Z,101131.88
2023-01-30T01:57:59.196Z,101137.19
2023-01-30T02:00:29.062Z,101133.75
2023-01-30T02:03:00.066Z,101136.22
2023-01-30T02:05:32.267Z,101141.91
2023-01-30T02:08:05.477Z,101138.25
2023-01-30T02:10:42.696Z,101143.63
2023-01-30T02:13:10.935Z,101147.38
2023-01-30T02:15:40.769Z,101149.09
2023-01-30T02:18:09.166Z,101156.63
2023-01-30T02:21:00.361Z,101161.56
2023-01-30T02:23:54.803Z,101166.69
2023-01-30T02:26:56.195Z,101165.16
2023-01-30T02:30:10.061Z,101157.88
2023-01-30T02:32:47.227Z,101158.50
2023-01-30T02:35:25.599Z,101149.44
2023-01-30T02:38:05.356Z,101149.28
2023-01-30T02:40:48.579Z,101145.44
2023-01-30T02:43:27.623Z,101143.91
2023-01-30T02:46:01.711Z,101126.00
2023-01-30T02:48:40.517Z,101127.78
2023-01-30T02:51:13.791Z,101124.44
2023-01-30T02:53:42.290Z,101119.16
2023-01-30T02:56:10.305Z,101114.53
2023-01-30T02:58:44.094Z,101104.28
2023-01-30T03:01:46.016Z,101105.56
2023-01-30T03:04:42.651Z,101099.09
2023-01-30T03:07:23.802Z,101094.31
2023-01-30T03:10:02.869Z,101080.81
2023-01-30T03:12:42.459Z,101071.78
2023-01-30T03:15:15.399Z,101071.78
2023-01-30T03:17:47.011Z,101066.50
2023-01-30T03:20:17.655Z,101068.31
2023-01-30T03:22:45.681Z,101071.19
2023-01-30T03:25:18.942Z,101071.69
2023-01-30T03:27:47.361Z,101066.66
2023-01-30T03:30:15.881Z,101065.47
2023-01-30T03:32:43.880Z,101068.03
2023-01-30T03:35:11.919Z,101065.38
2023-01-30T03:37:41.298Z,101073.81
2023-01-30T03:40:10.631Z,101063.78
2023-01-30T03:42:38.634Z,101060.34
2023-01-30T03:45:07.819Z,101073.47
2023-01-30T03:47:35.804Z,101076.81
2023-01-30T03:50:04.066Z,101087.91
2023-01-30T03:52:32.065Z,101081.34
2023-01-30T03:55:01.639Z,101090.03
2023-01-30T03:57:29.655Z,101087.81
2023-01-30T03:59:57.900Z,101090.97
2023-01-30T04:02:26.371Z,101092.44
2023-01-30T04:04:54.496Z,101091.41
2023-01-30T04:07:22.673Z,101091.25
2023-01-30T04:09:50.899Z,101094.81
2023-01-30T04:12:20.467Z,101099.25
2023-01-30T04:14:48.664Z,101101.91
2023-01-30T04:17:16.712Z,101109.84
2023-01-30T04:19:44.816Z,101122.81
2023-01-30T04:22:12.813Z,101132.88
2023-01-30T04:24:40.799Z,101141.59
2023-01-30T04:27:09.327Z,101144.47
2023-01-30T04:29:38.834Z,101144.66
2023-01-30T04:32:07.024Z,101153.03
2023-01-30T04:34:35.109Z,101165.16
2023-01-30T04:37:03.258Z,101173.03
2023-01-30T04:39:31.450Z,101180.59
2023-01-30T04:41:59.639Z,101187.19
2023-01-30T04:44:27.867Z,101198.31
2023-01-30T04:46:57.234Z,101195.56
2023-01-30T04:49:25.215Z,101189.81
2023-01-30T04:51:53.458Z,101188.81
2023-01-30T04:54:21.712Z,101179.94
2023-01-30T04:56:49.805Z,101174.22
2023-01-30T04:59:17.821Z,101181.41
2023-01-30T05:01:45.907Z,101180.47
2023-01-30T05:04:15.279Z,101177.38
2023-01-30T05:06:43.294Z,101175.75
2023-01-30T05:09:11.353Z,101185.56
2023-01-30T05:11:39.416Z,101189.06
2023-01-30T05:14:07.742Z,101190.00
2023-01-30T05:16:35.773Z,101189.41
2023-01-30T05:19:03.751Z,101173.16
2023-01-30T05:21:33.385Z,101174.00
2023-01-30T05:24:01.360Z,101155.59
2023-01-30T05:26:29.372Z,101159.69
2023-01-30T05:28:59.024Z,101166.69
2023-01-30T05:31:27.476Z,101176.00
2023-01-30T05:33:55.634Z,101167.38
2023-01-30T05:36:24.596Z,101167.22
2023-01-30T05:38:54.185Z,101160.00
2023-01-30T05:41:22.199Z,101169.66
2023-01-30T05:43:51.649Z,101164.13
2023-01-30T05:46:20.261Z,101165.75
2023-01-30T05:48:48.805Z,101165.34
2023-01-30T05:51:19.280Z,101163.63
2023-01-30T05:53:47.407Z,101163.44
2023-01-30T05:56:16.828Z,101166.41
2023-01-30T05:58:45.435Z,101161.19
2023-01-30T06:01:14.315Z,101144.91
2023-01-30T06:03:42.465Z,101144.84
2023-01-30T06:06:13.579Z,101145.16
2023-01-30T06:08:41.682Z,101145.50
2023-01-30T06:11:12.268Z,101129.63
2023-01-30T06:13:42.752Z,101125.63
2023-01-30T06:16:15.750Z,101131.25
2023-01-30T06:18:43.952Z,101129.66
2023-01-30T06:21:12.017Z,101120.69
2023-01-30T06:23:40.067Z,101123.16
2023-01-30T06:26:09.382Z,101124.94
2023-01-30T06:28:38.416Z,101124.03
2023-01-30T06:31:09.233Z,101112.59
2023-01-30T06:33:37.621Z,101124.19
2023-01-30T06:36:06.104Z,101119.50
2023-01-30T06:38:34.560Z,101119.41
2023-01-30T06:41:02.943Z,101129.31
2023-01-30T06:43:30.988Z,101124.69
2023-01-30T06:46:00.067Z,101115.91
2023-01-30T06:48:29.485Z,101115.13
2023-01-30T06:50:57.524Z,101110.09
2023-01-30T06:53:30.457Z,101107.47
2023-01-30T06:55:59.245Z,101094.47
2023-01-30T06:58:27.766Z,101101.22
2023-01-30T07:00:55.777Z,101104.56
2023-01-30T07:03:24.156Z,101098.94
2023-01-30T07:05:53.733Z,101102.16
2023-01-30T07:08:24.001Z,101112.16
2023-01-30T07:10:52.541Z,101103.19
2023-01-30T07:13:20.556Z,101106.88
2023-01-30T07:15:48.536Z,101106.97
2023-01-30T07:18:16.518Z,101111.28
2023-01-30T07:20:48.226Z,101106.44
2023-01-30T07:23:18.129Z,101115.81
2023-01-30T07:25:46.219Z,101132.38
2023-01-30T07:28:14.332Z,101140.88
2023-01-30T07:30:42.394Z,101140.72
2023-01-30T07:33:10.473Z,101141.06
2023-01-30T07:35:39.156Z,101142.19
2023-01-30T07:38:07.289Z,101144.91
2023-01-30T07:40:36.775Z,101142.03
2023-01-30T07:43:06.869Z,101149.09
2023-01-30T07:45:38.664Z,101162.16
2023-01-30T07:48:06.816Z,101156.47
2023-01-30T07:50:34.887Z,101170.50
2023-01-30T07:53:04.853Z,101177.38
2023-01-30T07:55:32.899Z,101169.97
2023-01-30T07:58:02.478Z,101170.44
2023-01-30T08:00:30.709Z,101178.31
2023-01-30T08:02:59.037Z,101181.63
2023-01-30T08:05:27.382Z,101188.28
2023-01-30T08:07:57.695Z,101182.22
2023-01-30T08:10:26.024Z,101189.06
2023-01-30T08:12:54.176Z,101192.66
2023-01-30T08:15:23.816Z,101204.28
2023-01-30T08:17:56.295Z,101208.13
2023-01-30T08:20:24.717Z,101217.22
2023-01-30T08:22:52.974Z,101215.00
2023-01-30T08:25:21.537Z,101218.41
2023-01-30T08:27:49.644Z,101213.28
2023-01-30T08:30:18.657Z,101226.97
2023-01-30T08:32:48.373Z,101235.16
2023-01-30T08:35:16.678Z,101248.94
2023-01-30T08:37:45.072Z,101257.63
2023-01-30T08:40:14.217Z,101260.47
2023-01-30T08:42:44.496Z,101262.59
2023-01-30T08:45:12.997Z,101267.59
2023-01-30T08:47:41.096Z,101274.06
2023-01-30T08:50:12.282Z,101280.53
2023-01-30T08:52:40.291Z,101281.06
2023-01-30T08:55:09.557Z,101284.41
2023-01-30T08:57:37.737Z,101280.69
2023-01-30T09:00:07.146Z,101278.75
2023-01-30T09:02:35.349Z,101276.72
2023-01-30T09:05:03.475Z,101287.91
2023-01-30T09:07:32.947Z,101290.91
2023-01-30T09:10:01.188Z,101302.31
2023-01-30T09:12:29.271Z,101303.38
2023-01-30T09:14:58.548Z,101296.97
2023-01-30T09:17:26.603Z,101306.72
2023-01-30T09:19:54.731Z,101304.06
2023-01-30T09:22:22.867Z,101313.53
2023-01-30T09:24:52.376Z,101314.22
2023-01-30T09:27:20.340Z,101309.31
2023-01-30T09:29:48.463Z,101301.94
2023-01-30T09:32:16.550Z,101295.34
2023-01-30T09:34:44.598Z,101307.53
2023-01-30T09:37:12.618Z,101317.28
2023-01-30T09:39:40.578Z,101326.75
2023-01-30T09:45:33.637Z,101315.72
2023-01-30T09:48:13.483Z,101299.72
2023-01-30T09:51:33.848Z,101310.28
2023-01-30T09:54:15.678Z,101298.69
2023-01-30T09:56:43.815Z,101291.69
2023-01-30T09:59:20.564Z,101283.25
2023-01-30T10:01:59.149Z,101277.31
2023-01-30T10:04:34.353Z,101282.00
2023-01-30T10:07:12.156Z,101286.31
2023-01-30T10:09:46.013Z,101291.66
2023-01-30T10:12:30.943Z,101290.31
2023-01-30T10:15:24.660Z,101298.00
2023-01-30T10:18:08.007Z,101306.91
2023-01-30T10:20:48.683Z,101303.19
2023-01-30T10:23:32.468Z,101297.19
2023-01-30T10:26:06.517Z,101310.16
2023-01-30T10:28:37.887Z,101309.38
2023-01-30T10:31:08.377Z,101299.84
2023-01-30T10:33:45.106Z,101311.19
2023-01-30T10:36:17.255Z,101313.97
2023-01-30T10:38:48.093Z,101306.88
2023-01-30T10:41:27.834Z,101309.53
2023-01-30T10:44:01.559Z,101321.41
2023-01-30T10:46:45.336Z,101317.84
2023-01-30T10:49:20.125Z,101323.19
2023-01-30T10:51:58.399Z,101323.63
2023-01-30T10:54:31.040Z,101325.94
2023-01-30T10:57:08.046Z,101330.53
2023-01-30T10:59:51.462Z,101326.47
2023-01-30T11:02:26.629Z,101327.88
2023-01-30T11:05:01.277Z,101329.78
2023-01-30T11:07:32.169Z,101319.34
2023-01-30T11:10:01.075Z,101323.34
2023-01-30T11:12:29.126Z,101312.88
2023-01-30T11:14:59.874Z,101322.00
2023-01-30T11:17:34.799Z,101315.00
2023-01-30T11:20:11.249Z,101307.69
2023-01-30T11:22:47.409Z,101303.50
2023-01-30T11:25:18.287Z,101300.19
2023-01-30T11:27:54.943Z,101293.34
2023-01-30T11:30:27.831Z,101294.13
2023-01-30T11:33:08.232Z,101291.13
2023-01-30T11:35:45.387Z,101293.97
2023-01-30T11:38:21.733Z,101291.00
2023-01-30T11:40:49.840Z,101297.66
2023-01-30T11:43:17.830Z,101287.03
2023-01-30T11:45:50.481Z,101286.66
2023-01-30T11:48:32.765Z,101280.97
2023-01-30T11:51:12.672Z,101285.44
2023-01-30T11:53:45.055Z,101278.06
2023-01-30T11:56:18.890Z,101275.66
2023-01-30T11:58:58.245Z,101272.25
2023-01-30T12:01:29.668Z,101264.19
2023-01-30T12:03:59.343Z,101266.94
2023-01-30T12:06:32.546Z,101267.78
2023-01-30T12:09:00.995Z,101267.59
2023-01-30T12:11:32.567Z,101261.03
2023-01-30T12:14:28.061Z,101259.91
2023-01-30T12:17:03.752Z,101252.72
2023-01-30T12:19:46.576Z,101256.97
2023-01-30T12:22:24.040Z,101255.09
2023-01-30T12:24:59.727Z,101258.50
2023-01-30T12:27:45.706Z,101263.00
2023-01-30T12:30:24.105Z,101263.66
2023-01-30T12:32:57.590Z,101256.50
2023-01-30T12:35:35.964Z,101243.16
2023-01-30T12:38:18.218Z,101243.34
2023-01-30T12:40:56.913Z,101237.34
2023-01-30T12:43:50.020Z,101230.44
2023-01-30T12:46:36.791Z,101231.16
2023-01-30T12:49:21.157Z,101227.34
2023-01-30T12:52:08.165Z,101233.56
2023-01-30T12:54:54.523Z,101232.31
2023-01-30T12:57:33.944Z,101229.03
2023-01-30T13:00:16.801Z,101227.91
2023-01-30T13:02:59.592Z,101228.22
2023-01-30T13:05:38.362Z,101229.03
2023-01-30T13:08:22.727Z,101224.31
2023-01-30T13:11:03.810Z,101214.09
2023-01-30T13:13:43.236Z,101215.00
2023-01-30T13:16:17.963Z,101205.03
2023-01-30T13:18:50.750Z,101210.56
2023-01-30T13:21:24.775Z,101212.22
2023-01-30T13:24:12.761Z,101204.63
2023-01-30T13:26:44.066Z,101208.25
2023-01-30T13:29:17.445Z,101209.19
2023-01-30T13:31:51.906Z,101195.66
2023-01-30T13:34:27.848Z,101195.97
2023-01-30T13:37:00.542Z,101199.56
2023-01-30T13:39:36.866Z,101192.81
2023-01-30T13:42:19.049Z,101178.81
2023-01-30T13:44:49.305Z,101166.91
2023-01-30T13:47:35.370Z,101167.38
2023-01-30T13:50:31.883Z,101169.47
2023-01-30T13:53:07.135Z,101175.81
2023-01-30T13:55:43.040Z,101168.13
2023-01-30T13:58:25.211Z,101169.16
2023-01-30T14:00:54.620Z,101163.53
2023-01-30T14:03:31.493Z,101158.00
2023-01-30T14:06:12.304Z,101152.25
2023-01-30T14:08:49.859Z,101159.19
2023-01-30T14:11:34.351Z,101160.50
2023-01-30T14:14:07.689Z,101156.00
2023-01-30T14:16:47.629Z,101150.59
2023-01-30T14:19:38.512Z,101148.03
2023-01-30T14:22:21.500Z,101148.75
2023-01-30T14:25:22.765Z,101150.22
2023-01-30T14:27:52.857Z,101152.56
2023-01-30T14:30:47.780Z,101152.06
2023-01-30T14:33:36.268Z,101147.03
2023-01-30T14:36:36.255Z,101147.78
2023-01-30T14:39:42.564Z,101143.75
2023-01-30T14:42:21.371Z,101140.44
2023-01-30T14:45:16.798Z,101134.22
2023-01-30T14:47:47.675Z,101125.22
2023-01-30T14:50:23.894Z,101126.66
2023-01-30T14:52:57.493Z,101139.53
2023-01-30T14:55:29.598Z,101144.53
2023-01-30T14:58:00.121Z,101138.44
2023-01-30T15:00:32.257Z,101139.84
2023-01-30T15:03:04.520Z,101142.72
2023-01-30T15:05:35.069Z,101136.66
2023-01-30T15:08:09.252Z,101131.22
2023-01-30T15:10:59.292Z,101129.50
2023-01-30T15:13:59.243Z,101132.47
2023-01-30T15:16:44.945Z,101128.75
2023-01-30T15:19:38.877Z,101131.31
2023-01-30T15:22:18.101Z,101132.78
2023-01-30T15:25:22.382Z,101135.00
2023-01-30T15:28:06.217Z,101127.56
2023-01-30T15:30:46.511Z,101128.31
2023-01-30T15:33:29.455Z,101141.28
2023-01-30T15:36:01.094Z,101145.97
2023-01-30T15:38:31.690Z,101152.06
2023-01-30T15:41:03.441Z,101149.47
2023-01-30T15:43:51.208Z,101149.75
2023-01-30T15:46:28.360Z,101150.78
2023-01-30T15:49:24.972Z,101160.13
2023-01-30T15:51:54.721Z,101161.63
2023-01-30T15:54:25.263Z,101160.56
2023-01-30T15:56:53.312Z,101163.56
2023-01-30T15:59:30.433Z,101170.69
2023-01-30T16:02:08.332Z,101174.00
2023-01-30T16:04:36.337Z,101160.72
2023-01-30T16:07:18.117Z,101155.34
2023-01-30T16:10:06.778Z,101160.47
2023-01-30T16:12:36.628Z,101169.72
2023-01-30T16:15:18.920Z,101160.97
2023-01-30T16:17:56.666Z,101163.16
2023-01-30T16:20:25.012Z,101168.28
2023-01-30T16:22:54.862Z,101160.50
2023-01-30T16:25:26.406Z,101161.66
2023-01-30T16:27:54.969Z,101165.28
2023-01-30T16:30:26.560Z,101164.50
2023-01-30T16:32:56.971Z,101169.28
2023-01-30T16:35:33.905Z,101178.06
2023-01-30T16:38:07.370Z,101184.72
2023-01-30T16:40:46.077Z,101175.06
2023-01-30T16:43:20.288Z,101183.22
2023-01-30T16:46:23.838Z,101176.84
2023-01-30T16:48:52.372Z,101182.25
2023-01-30T16:51:24.019Z,101190.22
2023-01-30T16:53:58.282Z,101189.09
2023-01-30T16:56:26.693Z,101193.97
2023-01-30T16:58:58.293Z,101187.41
2023-01-30T17:01:37.423Z,101197.47
2023-01-30T17:04:08.442Z,101195.38
2023-01-30T17:06:39.885Z,101191.97
2023-01-30T17:09:34.861Z,101196.41
2023-01-30T17:12:02.949Z,101182.72
2023-01-30T17:14:31.549Z,101185.75
2023-01-30T17:17:04.443Z,101186.16
2023-01-30T17:19:32.423Z,101188.41
2023-01-30T17:22:03.441Z,101200.50
2023-01-30T17:24:32.886Z,101198.31
2023-01-30T17:27:03.239Z,101204.81
2023-01-30T17:29:42.790Z,101216.75
2023-01-30T17:32:12.733Z,101222.00
2023-01-30T17:34:41.491Z,101223.88
2023-01-30T17:37:15.281Z,101237.03
2023-01-30T17:39:44.710Z,101243.72
2023-01-30T17:42:13.597Z,101238.97
2023-01-30T17:44:42.084Z,101246.31
2023-01-30T17:47:11.801Z,101239.63
2023-01-30T17:49:40.327Z,101242.47
2023-01-30T17:52:08.683Z,101239.28
2023-01-30T17:54:36.783Z,101247.31
2023-01-30T17:57:09.783Z,101237.75
2023-01-30T17:59:37.839Z,101241.81
2023-01-30T18:02:05.984Z,101249.19
2023-01-30T18:04:33.965Z,101253.97
2023-01-30T18:07:06.399Z,101259.75
2023-01-30T18:09:34.402Z,101262.25
2023-01-30T18:12:03.036Z,101265.84
2023-01-30T18:14:32.419Z,101267.00
2023-01-30T18:17:00.975Z,101269.31
2023-01-30T18:19:31.593Z,101269.53
2023-01-30T18:22:00.200Z,101273.81
2023-01-30T18:24:29.342Z,101267.59
2023-01-30T18:26:57.333Z,101274.91
2023-01-30T18:29:25.307Z,101276.00
2023-01-30T18:31:54.841Z,101275.63
2023-01-30T18:34:22.831Z,101274.75
2023-01-30T18:36:50.856Z,101287.50
2023-01-30T18:39:18.865Z,101287.34
2023-01-30T18:41:46.881Z,101284.72
2023-01-30T18:44:14.923Z,101283.84
2023-01-30T18:46:43.031Z,101281.44
2023-01-30T18:49:12.573Z,101288.16
2023-01-30T18:51:41.063Z,101296.16
2023-01-30T18:54:09.036Z,101297.88
2023-01-30T18:56:38.765Z,101298.88
2023-01-30T18:59:07.471Z,101311.00
2023-01-30T19:01:38.760Z,101302.16
2023-01-30T19:04:08.845Z,101299.41
2023-01-30T19:06:39.785Z,101303.88
2023-01-30T19:09:09.015Z,101296.94
2023-01-30T19:11:54.279Z,101298.22
2023-01-30T19:14:22.364Z,101309.56
2023-01-30T19:16:51.332Z,101289.88
2023-01-30T19:19:19.628Z,101307.88
2023-01-30T19:21:49.864Z,101311.34
2023-01-30T19:24:18.071Z,101307.66
2023-01-30T19:26:46.209Z,101304.94
2023-01-30T19:29:14.270Z,101304.44
2023-01-30T19:31:42.508Z,101305.28
2023-01-30T19:34:12.888Z,101318.22
2023-01-30T19:36:41.551Z,101311.75
2023-01-30T19:39:12.023Z,101315.97
2023-01-30T19:41:40.261Z,101315.38
2023-01-30T19:44:09.867Z,101315.38
2023-01-30T19:46:37.985Z,101315.78
2023-01-30T19:49:06.247Z,101317.22
2023-01-30T19:51:35.865Z,101323.63
2023-01-30T19:54:07.102Z,101325.09
2023-01-30T19:56:38.584Z,101325.09
2023-01-30T19:59:07.217Z,101324.56
2023-01-30T20:01:37.661Z,101333.31
2023-01-30T20:04:06.420Z,101320.28
2023-01-30T20:06:38.525Z,101324.72
2023-01-30T20:09:09.782Z,101327.59
2023-01-30T20:11:41.466Z,101329.72
2023-01-30T20:14:10.314Z,101324.84
2023-01-30T20:16:38.448Z,101336.75
2023-01-30T20:19:08.305Z,101337.88
2023-01-30T20:21:37.035Z,101339.19
2023-01-30T20:24:06.554Z,101340.13
2023-01-30T20:26:36.229Z,101344.47
2023-01-30T20:29:06.308Z,101343.69
2023-01-30T20:31:35.648Z,101346.69
2023-01-30T20:34:05.632Z,101350.06
2023-01-30T20:36:34.166Z,101350.94
2023-01-30T20:39:04.355Z,101354.97
2023-01-30T20:41:35.791Z,101351.81
2023-01-30T20:44:08.864Z,101348.44
2023-01-30T20:46:41.422Z,101361.56
2023-01-30T20:49:13.626Z,101363.72
2023-01-30T20:51:41.763Z,101363.72
2023-01-30T20:54:12.257Z,101371.56
2023-01-30T20:56:43.053Z,101369.66
2023-01-30T20:59:15.015Z,101375.97
2023-01-30T21:01:43.845Z,101395.59
2023-01-30T21:04:14.598Z,101385.88
2023-01-30T21:06:46.054Z,101392.78
2023-01-30T21:09:17.139Z,101399.69
2023-01-30T21:11:45.577Z,101393.31
2023-01-30T21:14:15.970Z,101392.56
2023-01-30T21:16:44.431Z,101398.75
2023-01-30T21:19:15.226Z,101403.97
2023-01-30T21:21:50.689Z,101398.81
2023-01-30T21:24:21.685Z,101402.41
2023-01-30T21:26:49.997Z,101402.66
2023-01-30T21:29:24.446Z,101405.41
2023-01-30T21:31:53.422Z,101405.34
2023-01-30T21:34:21.714Z,101413.13
2023-01-30T21:37:09.947Z,101411.59
2023-01-30T21:39:55.484Z,101418.66
2023-01-30T21:42:41.216Z,101417.97
2023-01-30T21:45:11.052Z,101421.59
2023-01-30T21:47:39.056Z,101430.47
2023-01-30T21:50:08.126Z,101423.50
2023-01-30T21:52:36.706Z,101428.72
2023-01-30T21:55:05.492Z,101426.94
2023-01-30T21:57:33.725Z,101432.88
2023-01-30T22:00:02.622Z,101436.38
2023-01-30T22:02:32.000Z,101432.88
2023-01-30T22:04:59.980Z,101437.22
2023-01-30T22:07:27.940Z,101442.50
2023-01-30T22:09:57.158Z,101439.06
2023-01-30T22:12:26.544Z,101433.78
2023-01-30T22:14:54.934Z,101432.19
2023-01-30T22:17:23.029Z,101432.44
2023-01-30T22:19:52.931Z,101431.75
2023-01-30T22:22:22.566Z,101427.53
2023-01-30T22:24:50.635Z,101428.78
2023-01-30T22:27:18.636Z,101442.50
2023-01-30T22:29:46.662Z,101436.41
2023-01-30T22:32:14.707Z,101446.69
2023-01-30T22:34:42.788Z,101443.38
2023-01-30T22:37:12.144Z,101446.06
2023-01-30T22:39:40.996Z,101443.84
2023-01-30T22:42:09.448Z,101427.41
2023-01-30T22:44:39.723Z,101439.38
2023-01-30T22:47:07.938Z,101442.81
2023-01-30T22:49:36.123Z,101442.81
2023-01-30T22:52:04.357Z,101442.34
2023-01-30T22:54:34.332Z,101440.91
2023-01-30T22:57:02.440Z,101437.50
2023-01-30T22:59:30.724Z,101447.34
2023-01-30T23:01:58.722Z,101442.03
2023-01-30T23:04:26.955Z,101446.06
2023-01-30T23:06:54.960Z,101446.75
2023-01-30T23:09:24.519Z,101457.84
2023-01-30T23:12:14.364Z,101458.91
2023-01-30T23:14:43.245Z,101452.25
2023-01-30T23:17:25.451Z,101451.75
2023-01-30T23:19:53.571Z,101449.03
2023-01-30T23:22:21.721Z,101439.09
2023-01-30T23:24:51.337Z,101443.22
2023-01-30T23:27:21.552Z,101444.69
2023-01-30T23:29:49.627Z,101445.03
2023-01-30T23:32:23.736Z,101437.16
2023-01-30T23:34:51.722Z,101438.09
2023-01-30T23:37:40.168Z,101445.31
2023-01-30T23:40:09.817Z,101444.47
2023-01-30T23:42:39.382Z,101435.28
2023-01-30T23:45:08.586Z,101433.09
2023-01-30T23:47:36.600Z,101433.25
2023-01-30T23:50:05.004Z,101424.53
2023-01-30T23:52:33.229Z,101425.91
2023-01-30T23:55:01.196Z,101422.78
2023-01-30T23:57:29.177Z,101414.88
2023-01-30T23:59:58.709Z,101420.22
